sensor_id;sensor_type;location;lat;lon;timestamp;pressure;altitude;pressure_sealevel;temperature;humidity
33781;BME280;20097;50.832;19.100;2023-04-06T00:03:10;98729.00;;;-0.98;90.93
33781;BME280;20097;50.832;19.100;2023-04-06T00:08:14;98725.72;;;-1.14;91.75
33781;BME280;20097;50.832;19.100;2023-04-06T00:13:19;98727.44;;;-1.28;92.26
33781;BME280;20097;50.832;19.100;2023-04-06T00:18:24;98721.47;;;-1.29;93.56
33781;BME280;20097;50.832;19.100;2023-04-06T00:23:28;98723.41;;;-1.32;95.91
33781;BME280;20097;50.832;19.100;2023-04-06T00:28:33;98716.19;;;-1.26;95.04
33781;BME280;20097;50.832;19.100;2023-04-06T00:33:38;98718.72;;;-1.40;94.21
33781;BME280;20097;50.832;19.100;2023-04-06T00:38:43;98716.50;;;-1.60;97.46
33781;BME280;20097;50.832;19.100;2023-04-06T00:43:48;98706.44;;;-1.49;98.78
33781;BME280;20097;50.832;19.100;2023-04-06T00:48:52;98709.66;;;-1.46;99.14
33781;BME280;20097;50.832;19.100;2023-04-06T00:53:56;98709.09;;;-1.51;98.85
33781;BME280;20097;50.832;19.100;2023-04-06T00:59:02;98703.88;;;-1.63;100.00
33781;BME280;20097;50.832;19.100;2023-04-06T01:04:07;98702.63;;;-1.86;100.00
33781;BME280;20097;50.832;19.100;2023-04-06T01:09:16;98704.06;;;-1.96;100.00
33781;BME280;20097;50.832;19.100;2023-04-06T01:14:23;98703.84;;;-2.07;100.00
33781;BME280;20097;50.832;19.100;2023-04-06T01:19:33;98698.84;;;-2.39;100.00
33781;BME280;20097;50.832;19.100;2023-04-06T01:24:39;98700.69;;;-2.57;100.00
33781;BME280;20097;50.832;19.100;2023-04-06T01:30:06;98694.91;;;-2.60;100.00
33781;BME280;20097;50.832;19.100;2023-04-06T01:35:33;98692.25;;;-2.90;100.00
33781;BME280;20097;50.832;19.100;2023-04-06T01:40:49;98697.84;;;-2.99;100.00
33781;BME280;20097;50.832;19.100;2023-04-06T01:45:56;98692.59;;;-2.96;100.00
33781;BME280;20097;50.832;19.100;2023-04-06T01:51:05;98690.25;;;-3.01;100.00
33781;BME280;20097;50.832;19.100;2023-04-06T01:56:18;98690.53;;;-2.90;100.00
33781;BME280;20097;50.832;19.100;2023-04-06T02:01:33;98690.44;;;-2.88;100.00
33781;BME280;20097;50.832;19.100;2023-04-06T02:06:38;98683.63;;;-2.72;100.00
33781;BME280;20097;50.832;19.100;2023-04-06T02:11:46;98676.13;;;-2.75;100.00
33781;BME280;20097;50.832;19.100;2023-04-06T02:16:50;98677.09;;;-2.93;100.00
33781;BME280;20097;50.832;19.100;2023-04-06T02:21:55;98678.91;;;-2.95;100.00
33781;BME280;20097;50.832;19.100;2023-04-06T02:27:00;98672.03;;;-3.26;100.00
33781;BME280;20097;50.832;19.100;2023-04-06T02:32:04;98674.38;;;-3.38;100.00
33781;BME280;20097;50.832;19.100;2023-04-06T02:37:08;98671.34;;;-3.29;100.00
33781;BME280;20097;50.832;19.100;2023-04-06T02:42:15;98673.56;;;-3.39;100.00
33781;BME280;20097;50.832;19.100;2023-04-06T02:47:21;98671.69;;;-3.35;100.00
33781;BME280;20097;50.832;19.100;2023-04-06T02:52:26;98677.81;;;-3.89;100.00
33781;BME280;20097;50.832;19.100;2023-04-06T02:57:33;98668.16;;;-3.82;100.00
33781;BME280;20097;50.832;19.100;2023-04-06T03:02:38;98668.88;;;-3.63;100.00
33781;BME280;20097;50.832;19.100;2023-04-06T03:07:46;98673.91;;;-3.62;100.00
33781;BME280;20097;50.832;19.100;2023-04-06T03:13:03;98666.94;;;-3.75;100.00
33781;BME280;20097;50.832;19.100;2023-04-06T03:18:31;98673.41;;;-3.85;100.00
33781;BME280;20097;50.832;19.100;2023-04-06T03:23:36;98686.44;;;-3.91;100.00
33781;BME280;20097;50.832;19.100;2023-04-06T03:28:43;98677.28;;;-4.12;100.00
33781;BME280;20097;50.832;19.100;2023-04-06T03:33:48;98675.63;;;-4.13;100.00
33781;BME280;20097;50.832;19.100;2023-04-06T03:38:57;98678.72;;;-4.07;100.00
33781;BME280;20097;50.832;19.100;2023-04-06T03:44:04;98684.63;;;-4.24;100.00
33781;BME280;20097;50.832;19.100;2023-04-06T03:49:09;98683.31;;;-4.32;100.00
33781;BME280;20097;50.832;19.100;2023-04-06T03:54:14;98687.50;;;-4.48;100.00
33781;BME280;20097;50.832;19.100;2023-04-06T03:59:20;98687.81;;;-4.37;100.00
33781;BME280;20097;50.832;19.100;2023-04-06T04:04:28;98693.56;;;-4.51;100.00
33781;BME280;20097;50.832;19.100;2023-04-06T04:09:33;98690.97;;;-4.68;100.00
33781;BME280;20097;50.832;19.100;2023-04-06T04:14:38;98690.34;;;-4.54;100.00
33781;BME280;20097;50.832;19.100;2023-04-06T04:19:43;98690.25;;;-4.53;100.00
33781;BME280;20097;50.832;19.100;2023-04-06T04:24:49;98694.91;;;-4.44;100.00
33781;BME280;20097;50.832;19.100;2023-04-06T04:29:55;98692.97;;;-4.39;100.00
33781;BME280;20097;50.832;19.100;2023-04-06T04:34:59;98692.66;;;-4.68;100.00
33781;BME280;20097;50.832;19.100;2023-04-06T04:40:11;98685.41;;;-4.40;100.00
33781;BME280;20097;50.832;19.100;2023-04-06T04:45:26;98692.13;;;-4.21;100.00
33781;BME280;20097;50.832;19.100;2023-04-06T04:50:33;98680.00;;;-3.98;100.00
33781;BME280;20097;50.832;19.100;2023-04-06T04:55:37;98684.78;;;-3.75;100.00
33781;BME280;20097;50.832;19.100;2023-04-06T05:00:43;98693.69;;;-3.67;100.00
33781;BME280;20097;50.832;19.100;2023-04-06T05:05:47;98694.34;;;-3.46;100.00
33781;BME280;20097;50.832;19.100;2023-04-06T05:10:53;98682.59;;;-3.16;100.00
33781;BME280;20097;50.832;19.100;2023-04-06T05:15:59;98684.84;;;-2.95;100.00
33781;BME280;20097;50.832;19.100;2023-04-06T05:21:06;98684.50;;;-2.73;100.00
33781;BME280;20097;50.832;19.100;2023-04-06T05:26:19;98694.75;;;-2.57;100.00
33781;BME280;20097;50.832;19.100;2023-04-06T05:31:29;98688.53;;;-2.53;100.00
33781;BME280;20097;50.832;19.100;2023-04-06T05:36:33;98691.69;;;-2.48;100.00
33781;BME280;20097;50.832;19.100;2023-04-06T05:41:43;98686.66;;;-2.34;100.00
33781;BME280;20097;50.832;19.100;2023-04-06T05:46:51;98684.91;;;-2.18;100.00
33781;BME280;20097;50.832;19.100;2023-04-06T05:51:56;98683.22;;;-2.19;100.00
33781;BME280;20097;50.832;19.100;2023-04-06T05:57:01;98689.06;;;-2.02;100.00
33781;BME280;20097;50.832;19.100;2023-04-06T06:02:07;98679.22;;;-1.94;100.00
33781;BME280;20097;50.832;19.100;2023-04-06T06:07:16;98691.13;;;-1.79;100.00
33781;BME280;20097;50.832;19.100;2023-04-06T06:12:29;98694.66;;;-1.52;100.00
33781;BME280;20097;50.832;19.100;2023-04-06T06:17:35;98685.88;;;-1.48;100.00
33781;BME280;20097;50.832;19.100;2023-04-06T06:22:41;98688.47;;;-1.33;100.00
33781;BME280;20097;50.832;19.100;2023-04-06T06:27:50;98690.00;;;-1.17;100.00
33781;BME280;20097;50.832;19.100;2023-04-06T06:32:57;98692.59;;;-1.03;100.00
33781;BME280;20097;50.832;19.100;2023-04-06T06:38:02;98687.94;;;-0.96;100.00
33781;BME280;20097;50.832;19.100;2023-04-06T06:43:08;98690.06;;;-0.76;100.00
33781;BME280;20097;50.832;19.100;2023-04-06T06:48:26;98693.31;;;-0.46;100.00
33781;BME280;20097;50.832;19.100;2023-04-06T06:53:31;98685.97;;;-0.38;100.00
33781;BME280;20097;50.832;19.100;2023-04-06T06:58:35;98693.47;;;-0.35;100.00
33781;BME280;20097;50.832;19.100;2023-04-06T07:03:40;98689.84;;;-0.19;100.00
33781;BME280;20097;50.832;19.100;2023-04-06T07:08:45;98694.63;;;0.00;100.00
33781;BME280;20097;50.832;19.100;2023-04-06T07:13:49;98696.41;;;0.12;100.00
33781;BME280;20097;50.832;19.100;2023-04-06T07:18:55;98696.47;;;0.37;100.00
33781;BME280;20097;50.832;19.100;2023-04-06T07:23:59;98703.25;;;0.51;100.00
33781;BME280;20097;50.832;19.100;2023-04-06T07:29:04;98705.00;;;0.75;97.46
33781;BME280;20097;50.832;19.100;2023-04-06T07:34:09;98698.72;;;1.17;97.06
33781;BME280;20097;50.832;19.100;2023-04-06T07:39:14;98704.03;;;1.26;92.24
33781;BME280;20097;50.832;19.100;2023-04-06T07:44:19;98701.63;;;1.49;88.70
33781;BME280;20097;50.832;19.100;2023-04-06T07:49:25;98700.66;;;1.62;85.64
33781;BME280;20097;50.832;19.100;2023-04-06T07:54:30;98701.81;;;1.82;82.22
33781;BME280;20097;50.832;19.100;2023-04-06T07:59:34;98711.34;;;1.69;78.24
33781;BME280;20097;50.832;19.100;2023-04-06T08:04:40;98707.22;;;1.66;75.28
33781;BME280;20097;50.832;19.100;2023-04-06T08:09:47;98702.97;;;2.01;76.83
33781;BME280;20097;50.832;19.100;2023-04-06T08:14:51;98707.78;;;2.40;73.44
33781;BME280;20097;50.832;19.100;2023-04-06T08:19:56;98694.31;;;2.37;73.23
33781;BME280;20097;50.832;19.100;2023-04-06T08:25:00;98701.91;;;2.27;69.97
33781;BME280;20097;50.832;19.100;2023-04-06T08:30:05;98699.97;;;2.53;68.82
33781;BME280;20097;50.832;19.100;2023-04-06T08:35:11;98698.59;;;2.71;67.15
33781;BME280;20097;50.832;19.100;2023-04-06T08:40:15;98684.28;;;2.67;67.04
33781;BME280;20097;50.832;19.100;2023-04-06T08:45:20;98693.94;;;2.76;66.27
33781;BME280;20097;50.832;19.100;2023-04-06T08:50:26;98688.22;;;2.49;64.81
33781;BME280;20097;50.832;19.100;2023-04-06T08:55:30;98685.53;;;3.07;65.16
33781;BME280;20097;50.832;19.100;2023-04-06T09:00:37;98689.03;;;2.95;63.64
33781;BME280;20097;50.832;19.100;2023-04-06T09:05:43;98678.09;;;3.03;62.50
33781;BME280;20097;50.832;19.100;2023-04-06T09:10:47;98672.25;;;3.12;62.45
33781;BME280;20097;50.832;19.100;2023-04-06T09:16:01;98664.44;;;3.67;62.43
33781;BME280;20097;50.832;19.100;2023-04-06T09:21:09;98668.59;;;3.47;61.38
33781;BME280;20097;50.832;19.100;2023-04-06T09:26:14;98670.25;;;3.26;61.37
33781;BME280;20097;50.832;19.100;2023-04-06T09:31:22;98645.16;;;3.39;61.52
33781;BME280;20097;50.832;19.100;2023-04-06T09:36:31;98662.63;;;3.25;61.40
33781;BME280;20097;50.832;19.100;2023-04-06T09:41:35;98655.31;;;3.52;62.29
33781;BME280;20097;50.832;19.100;2023-04-06T09:46:40;98654.31;;;3.75;60.68
33781;BME280;20097;50.832;19.100;2023-04-06T09:52:03;98649.06;;;3.97;60.56
33781;BME280;20097;50.832;19.100;2023-04-06T09:57:10;98648.41;;;4.15;59.99
33781;BME280;20097;50.832;19.100;2023-04-06T10:02:20;98648.84;;;4.20;59.61
33781;BME280;20097;50.832;19.100;2023-04-06T10:07:28;98649.28;;;4.26;59.47
33781;BME280;20097;50.832;19.100;2023-04-06T10:12:34;98641.72;;;4.34;59.88
33781;BME280;20097;50.832;19.100;2023-04-06T10:17:38;98631.94;;;4.16;60.18
33781;BME280;20097;50.832;19.100;2023-04-06T10:22:45;98632.50;;;4.61;60.17
33781;BME280;20097;50.832;19.100;2023-04-06T10:28:00;98631.63;;;4.51;59.74
33781;BME280;20097;50.832;19.100;2023-04-06T10:33:12;98615.06;;;4.54;59.70
33781;BME280;20097;50.832;19.100;2023-04-06T10:38:19;98614.06;;;4.75;59.13
33781;BME280;20097;50.832;19.100;2023-04-06T10:43:24;98608.03;;;4.65;59.26
33781;BME280;20097;50.832;19.100;2023-04-06T10:48:36;98598.81;;;4.42;59.05
33781;BME280;20097;50.832;19.100;2023-04-06T10:53:45;98595.47;;;4.31;59.40
33781;BME280;20097;50.832;19.100;2023-04-06T10:58:52;98601.19;;;4.55;58.20
33781;BME280;20097;50.832;19.100;2023-04-06T11:03:58;98594.38;;;4.54;59.41
33781;BME280;20097;50.832;19.100;2023-04-06T11:09:04;98589.13;;;4.14;59.15
33781;BME280;20097;50.832;19.100;2023-04-06T11:14:09;98582.44;;;4.11;59.53
33781;BME280;20097;50.832;19.100;2023-04-06T11:19:13;98583.13;;;4.34;58.91
33781;BME280;20097;50.832;19.100;2023-04-06T11:24:20;98581.94;;;4.17;58.73
33781;BME280;20097;50.832;19.100;2023-04-06T11:29:26;98574.94;;;4.08;59.71
33781;BME280;20097;50.832;19.100;2023-04-06T11:34:33;98570.97;;;4.04;60.38
33781;BME280;20097;50.832;19.100;2023-04-06T11:39:47;98573.53;;;4.25;60.35
33781;BME280;20097;50.832;19.100;2023-04-06T11:44:54;98568.13;;;4.28;60.18
33781;BME280;20097;50.832;19.100;2023-04-06T11:50:05;98560.69;;;4.14;61.45
33781;BME280;20097;50.832;19.100;2023-04-06T11:55:13;98555.22;;;4.07;63.15
33781;BME280;20097;50.832;19.100;2023-04-06T12:00:18;98552.25;;;4.12;64.25
33781;BME280;20097;50.832;19.100;2023-04-06T12:05:23;98544.72;;;3.99;63.97
33781;BME280;20097;50.832;19.100;2023-04-06T12:10:29;98548.66;;;4.03;65.95
33781;BME280;20097;50.832;19.100;2023-04-06T12:15:33;98540.81;;;3.84;68.33
33781;BME280;20097;50.832;19.100;2023-04-06T12:20:37;98538.41;;;3.92;70.37
33781;BME280;20097;50.832;19.100;2023-04-06T12:25:42;98536.56;;;4.04;71.37
33781;BME280;20097;50.832;19.100;2023-04-06T12:30:46;98532.41;;;3.92;71.92
33781;BME280;20097;50.832;19.100;2023-04-06T12:35:50;98524.66;;;3.92;72.05
33781;BME280;20097;50.832;19.100;2023-04-06T12:40:56;98523.41;;;4.07;71.65
33781;BME280;20097;50.832;19.100;2023-04-06T12:46:00;98515.34;;;4.00;74.32
33781;BME280;20097;50.832;19.100;2023-04-06T12:51:05;98517.22;;;3.98;74.12
33781;BME280;20097;50.832;19.100;2023-04-06T12:56:14;98516.81;;;3.93;73.56
33781;BME280;20097;50.832;19.100;2023-04-06T13:01:19;98512.41;;;3.84;76.15
33781;BME280;20097;50.832;19.100;2023-04-06T13:06:24;98506.97;;;3.46;78.33
33781;BME280;20097;50.832;19.100;2023-04-06T13:11:31;98499.03;;;3.38;80.74
33781;BME280;20097;50.832;19.100;2023-04-06T13:16:35;98491.06;;;3.30;82.98
33781;BME280;20097;50.832;19.100;2023-04-06T13:21:40;98484.00;;;3.12;88.09
33781;BME280;20097;50.832;19.100;2023-04-06T13:26:45;98487.28;;;3.14;92.83
33781;BME280;20097;50.832;19.100;2023-04-06T13:31:49;98476.63;;;3.39;94.72
33781;BME280;20097;50.832;19.100;2023-04-06T13:36:53;98471.97;;;3.01;97.43
33781;BME280;20097;50.832;19.100;2023-04-06T13:41:59;98475.28;;;2.92;100.00
33781;BME280;20097;50.832;19.100;2023-04-06T13:47:05;98472.28;;;2.76;100.00
33781;BME280;20097;50.832;19.100;2023-04-06T13:52:10;98470.28;;;2.68;100.00
33781;BME280;20097;50.832;19.100;2023-04-06T13:57:15;98463.41;;;2.58;100.00
33781;BME280;20097;50.832;19.100;2023-04-06T14:02:20;98464.56;;;2.54;100.00
33781;BME280;20097;50.832;19.100;2023-04-06T14:07:30;98467.41;;;2.40;100.00
33781;BME280;20097;50.832;19.100;2023-04-06T14:12:35;98471.16;;;2.36;100.00
33781;BME280;20097;50.832;19.100;2023-04-06T14:17:39;98468.34;;;2.28;100.00
33781;BME280;20097;50.832;19.100;2023-04-06T14:22:43;98464.97;;;2.38;100.00
33781;BME280;20097;50.832;19.100;2023-04-06T14:27:48;98466.47;;;2.30;100.00
33781;BME280;20097;50.832;19.100;2023-04-06T14:32:53;98460.84;;;2.36;100.00
33781;BME280;20097;50.832;19.100;2023-04-06T14:37:56;98457.56;;;2.23;100.00
33781;BME280;20097;50.832;19.100;2023-04-06T14:43:02;98459.00;;;2.05;100.00
33781;BME280;20097;50.832;19.100;2023-04-06T14:48:06;98462.75;;;2.01;100.00
33781;BME280;20097;50.832;19.100;2023-04-06T14:53:14;98457.13;;;2.07;100.00
33781;BME280;20097;50.832;19.100;2023-04-06T14:58:20;98458.41;;;2.01;100.00
33781;BME280;20097;50.832;19.100;2023-04-06T15:03:24;98466.50;;;1.97;100.00
33781;BME280;20097;50.832;19.100;2023-04-06T15:08:28;98467.19;;;1.99;100.00
33781;BME280;20097;50.832;19.100;2023-04-06T15:13:36;98458.38;;;1.79;100.00
33781;BME280;20097;50.832;19.100;2023-04-06T15:18:41;98452.09;;;1.83;100.00
33781;BME280;20097;50.832;19.100;2023-04-06T15:23:46;98455.81;;;1.79;100.00
33781;BME280;20097;50.832;19.100;2023-04-06T15:28:52;98447.06;;;1.71;100.00
33781;BME280;20097;50.832;19.100;2023-04-06T15:33:56;98453.22;;;1.68;100.00
33781;BME280;20097;50.832;19.100;2023-04-06T15:39:00;98446.81;;;1.74;100.00
33781;BME280;20097;50.832;19.100;2023-04-06T15:44:05;98444.00;;;1.66;100.00
33781;BME280;20097;50.832;19.100;2023-04-06T15:49:09;98438.06;;;1.41;100.00
33781;BME280;20097;50.832;19.100;2023-04-06T15:54:13;98436.78;;;1.36;100.00
33781;BME280;20097;50.832;19.100;2023-04-06T15:59:19;98435.00;;;1.25;100.00
33781;BME280;20097;50.832;19.100;2023-04-06T16:04:23;98442.94;;;1.22;100.00
33781;BME280;20097;50.832;19.100;2023-04-06T16:09:27;98439.78;;;1.19;100.00
33781;BME280;20097;50.832;19.100;2023-04-06T16:14:33;98444.78;;;1.20;100.00
33781;BME280;20097;50.832;19.100;2023-04-06T16:19:37;98439.84;;;1.06;100.00
33781;BME280;20097;50.832;19.100;2023-04-06T16:24:41;98434.84;;;1.16;100.00
33781;BME280;20097;50.832;19.100;2023-04-06T16:29:46;98436.63;;;1.15;100.00
33781;BME280;20097;50.832;19.100;2023-04-06T16:34:50;98432.25;;;1.05;100.00
33781;BME280;20097;50.832;19.100;2023-04-06T16:39:55;98439.84;;;1.06;100.00
33781;BME280;20097;50.832;19.100;2023-04-06T16:45:00;98445.00;;;1.06;100.00
33781;BME280;20097;50.832;19.100;2023-04-06T16:50:05;98450.13;;;1.06;100.00
33781;BME280;20097;50.832;19.100;2023-04-06T16:55:10;98449.09;;;1.09;100.00
33781;BME280;20097;50.832;19.100;2023-04-06T17:00:17;98459.47;;;1.07;100.00
33781;BME280;20097;50.832;19.100;2023-04-06T17:05:22;98460.03;;;1.00;100.00
33781;BME280;20097;50.832;19.100;2023-04-06T17:10:28;98462.94;;;0.95;100.00
33781;BME280;20097;50.832;19.100;2023-04-06T17:15:43;98454.41;;;0.95;100.00
33781;BME280;20097;50.832;19.100;2023-04-06T17:20:47;98456.13;;;0.94;100.00
33781;BME280;20097;50.832;19.100;2023-04-06T17:25:51;98458.63;;;0.96;100.00
33781;BME280;20097;50.832;19.100;2023-04-06T17:31:00;98467.13;;;0.96;100.00
33781;BME280;20097;50.832;19.100;2023-04-06T17:36:05;98464.56;;;0.96;100.00
33781;BME280;20097;50.832;19.100;2023-04-06T17:41:10;98473.94;;;0.97;100.00
33781;BME280;20097;50.832;19.100;2023-04-06T17:46:15;98471.63;;;1.05;100.00
33781;BME280;20097;50.832;19.100;2023-04-06T17:51:20;98466.22;;;0.97;100.00
33781;BME280;20097;50.832;19.100;2023-04-06T17:56:23;98472.88;;;1.00;100.00
33781;BME280;20097;50.832;19.100;2023-04-06T18:01:30;98478.75;;;1.02;100.00
33781;BME280;20097;50.832;19.100;2023-04-06T18:06:34;98471.38;;;0.97;100.00
33781;BME280;20097;50.832;19.100;2023-04-06T18:11:39;98467.41;;;1.04;100.00
33781;BME280;20097;50.832;19.100;2023-04-06T18:16:44;98472.78;;;1.01;100.00
33781;BME280;20097;50.832;19.100;2023-04-06T18:21:48;98467.84;;;0.98;100.00
33781;BME280;20097;50.832;19.100;2023-04-06T18:26:52;98468.19;;;0.94;100.00
33781;BME280;20097;50.832;19.100;2023-04-06T18:31:57;98454.47;;;0.82;100.00
33781;BME280;20097;50.832;19.100;2023-04-06T18:37:01;98446.88;;;0.81;100.00
33781;BME280;20097;50.832;19.100;2023-04-06T18:42:05;98450.84;;;0.85;100.00
33781;BME280;20097;50.832;19.100;2023-04-06T18:47:11;98450.28;;;0.81;100.00
33781;BME280;20097;50.832;19.100;2023-04-06T18:52:15;98453.53;;;0.83;100.00
33781;BME280;20097;50.832;19.100;2023-04-06T18:57:19;98445.13;;;0.81;100.00
33781;BME280;20097;50.832;19.100;2023-04-06T19:02:24;98438.34;;;0.80;100.00
33781;BME280;20097;50.832;19.100;2023-04-06T19:07:28;98429.22;;;0.76;100.00
33781;BME280;20097;50.832;19.100;2023-04-06T19:12:33;98424.34;;;0.84;100.00
33781;BME280;20097;50.832;19.100;2023-04-06T19:17:42;98417.56;;;0.83;100.00
33781;BME280;20097;50.832;19.100;2023-04-06T19:22:46;98423.75;;;0.81;100.00
33781;BME280;20097;50.832;19.100;2023-04-06T19:27:51;98416.94;;;0.80;100.00
33781;BME280;20097;50.832;19.100;2023-04-06T19:32:57;98415.53;;;0.76;100.00
33781;BME280;20097;50.832;19.100;2023-04-06T19:38:01;98417.19;;;0.77;100.00
33781;BME280;20097;50.832;19.100;2023-04-06T19:43:05;98415.09;;;0.82;100.00
33781;BME280;20097;50.832;19.100;2023-04-06T19:48:11;98406.91;;;0.77;100.00
33781;BME280;20097;50.832;19.100;2023-04-06T19:53:15;98413.59;;;0.79;100.00
33781;BME280;20097;50.832;19.100;2023-04-06T19:58:19;98411.00;;;0.79;100.00
33781;BME280;20097;50.832;19.100;2023-04-06T20:03:25;98409.16;;;0.81;100.00
33781;BME280;20097;50.832;19.100;2023-04-06T20:08:29;98402.38;;;0.80;100.00
33781;BME280;20097;50.832;19.100;2023-04-06T20:13:33;98400.06;;;0.88;100.00
33781;BME280;20097;50.832;19.100;2023-04-06T20:18:38;98397.84;;;0.84;100.00
33781;BME280;20097;50.832;19.100;2023-04-06T20:23:42;98394.44;;;0.83;100.00
33781;BME280;20097;50.832;19.100;2023-04-06T20:28:46;98390.00;;;0.85;100.00
33781;BME280;20097;50.832;19.100;2023-04-06T20:33:52;98388.81;;;0.78;100.00
33781;BME280;20097;50.832;19.100;2023-04-06T20:38:56;98387.06;;;0.79;100.00
33781;BME280;20097;50.832;19.100;2023-04-06T20:44:00;98376.78;;;0.79;100.00
33781;BME280;20097;50.832;19.100;2023-04-06T20:49:05;98376.94;;;0.88;100.00
33781;BME280;20097;50.832;19.100;2023-04-06T20:54:09;98382.91;;;0.89;100.00
33781;BME280;20097;50.832;19.100;2023-04-06T20:59:14;98372.50;;;0.90;100.00
33781;BME280;20097;50.832;19.100;2023-04-06T21:04:19;98373.00;;;0.95;100.00
33781;BME280;20097;50.832;19.100;2023-04-06T21:09:24;98364.81;;;0.90;100.00
33781;BME280;20097;50.832;19.100;2023-04-06T21:14:29;98359.66;;;0.90;100.00
33781;BME280;20097;50.832;19.100;2023-04-06T21:19:35;98363.97;;;0.90;100.00
33781;BME280;20097;50.832;19.100;2023-04-06T21:24:39;98357.31;;;0.87;100.00
33781;BME280;20097;50.832;19.100;2023-04-06T21:29:44;98352.78;;;0.91;100.00
33781;BME280;20097;50.832;19.100;2023-04-06T21:34:49;98349.38;;;0.90;100.00
33781;BME280;20097;50.832;19.100;2023-04-06T21:39:54;98353.09;;;0.86;100.00
33781;BME280;20097;50.832;19.100;2023-04-06T21:44:59;98345.19;;;0.89;100.00
33781;BME280;20097;50.832;19.100;2023-04-06T21:50:05;98346.81;;;0.90;100.00
33781;BME280;20097;50.832;19.100;2023-04-06T21:55:09;98335.94;;;0.87;100.00
33781;BME280;20097;50.832;19.100;2023-04-06T22:00:15;98333.72;;;0.82;100.00
33781;BME280;20097;50.832;19.100;2023-04-06T22:05:20;98326.84;;;0.83;100.00
33781;BME280;20097;50.832;19.100;2023-04-06T22:10:24;98319.69;;;0.86;100.00
33781;BME280;20097;50.832;19.100;2023-04-06T22:15:28;98319.28;;;0.92;100.00
33781;BME280;20097;50.832;19.100;2023-04-06T22:20:34;98326.25;;;0.90;100.00
33781;BME280;20097;50.832;19.100;2023-04-06T22:25:38;98316.69;;;0.81;100.00
33781;BME280;20097;50.832;19.100;2023-04-06T22:30:42;98309.44;;;0.86;100.00
33781;BME280;20097;50.832;19.100;2023-04-06T22:35:48;98307.81;;;0.85;100.00
33781;BME280;20097;50.832;19.100;2023-04-06T22:40:52;98298.47;;;0.84;100.00
33781;BME280;20097;50.832;19.100;2023-04-06T22:45:56;98303.50;;;0.86;100.00
33781;BME280;20097;50.832;19.100;2023-04-06T22:51:01;98302.53;;;0.87;100.00
33781;BME280;20097;50.832;19.100;2023-04-06T22:56:05;98292.75;;;0.92;100.00
33781;BME280;20097;50.832;19.100;2023-04-06T23:01:09;98297.53;;;0.85;100.00
33781;BME280;20097;50.832;19.100;2023-04-06T23:06:16;98293.44;;;0.83;100.00
33781;BME280;20097;50.832;19.100;2023-04-06T23:11:20;98288.19;;;0.84;100.00
33781;BME280;20097;50.832;19.100;2023-04-06T23:16:23;98289.59;;;0.88;100.00
33781;BME280;20097;50.832;19.100;2023-04-06T23:21:29;98283.06;;;0.84;100.00
33781;BME280;20097;50.832;19.100;2023-04-06T23:26:34;98271.94;;;0.84;100.00
33781;BME280;20097;50.832;19.100;2023-04-06T23:31:38;98271.47;;;0.79;100.00
33781;BME280;20097;50.832;19.100;2023-04-06T23:36:44;98269.38;;;0.84;100.00
33781;BME280;20097;50.832;19.100;2023-04-06T23:41:48;98269.16;;;0.87;100.00
33781;BME280;20097;50.832;19.100;2023-04-06T23:46:52;98246.75;;;0.89;100.00
33781;BME280;20097;50.832;19.100;2023-04-06T23:51:57;98248.47;;;0.88;100.00
33781;BME280;20097;50.832;19.100;2023-04-06T23:57:02;98246.84;;;0.87;100.00
